createdAt,value
2022-07-29T00:00:44.935Z,50.875259
2022-07-29T00:01:44.920Z,50.875263
2022-07-29T00:02:44.963Z,50.875271
2022-07-29T00:03:44.940Z,50.875175
2022-07-29T00:04:44.933Z,50.875866
2022-07-29T00:05:44.877Z,50.876507
2022-07-29T00:06:44.884Z,50.876507
2022-07-29T00:07:44.848Z,50.876507
2022-07-29T00:08:44.842Z,50.876507
2022-07-29T00:09:52.167Z,50.876507
2022-07-29T00:10:45.835Z,50.876507
2022-07-29T00:11:44.793Z,50.876507
2022-07-29T00:12:44.816Z,50.876507
2022-07-29T00:13:49.082Z,50.876507
2022-07-29T00:14:46.777Z,50.876507
2022-07-29T00:15:44.764Z,50.876507
2022-07-29T00:16:44.822Z,50.876507
2022-07-29T00:17:44.762Z,50.876507
2022-07-29T00:18:44.750Z,50.876507
2022-07-29T00:19:45.682Z,50.876507
2022-07-29T00:20:45.755Z,50.876507
2022-07-29T00:21:44.730Z,50.876507
2022-07-29T00:22:44.736Z,50.876507
2022-07-29T00:23:44.701Z,50.876507
2022-07-29T00:24:44.691Z,50.876507
2022-07-29T00:25:44.688Z,50.876507
2022-07-29T00:26:44.690Z,50.876507
2022-07-29T00:27:44.671Z,50.876507
2022-07-29T00:28:44.664Z,50.876507
2022-07-29T00:29:44.648Z,50.876507
2022-07-29T00:30:44.646Z,50.876507
2022-07-29T00:31:44.790Z,50.876507
2022-07-29T00:32:44.630Z,50.876507
2022-07-29T00:33:44.627Z,50.876507
2022-07-29T00:34:44.583Z,50.876507
2022-07-29T00:35:44.571Z,50.876507
2022-07-29T00:36:44.602Z,50.876507
2022-07-29T00:37:44.569Z,50.876507
2022-07-29T00:38:44.609Z,50.876507
2022-07-29T00:39:44.557Z,50.876507
2022-07-29T00:40:44.559Z,50.876507
2022-07-29T00:41:44.549Z,50.876507
2022-07-29T00:42:44.516Z,50.876507
2022-07-29T00:43:44.525Z,50.876507
2022-07-29T00:44:44.499Z,50.876507
2022-07-29T00:45:44.523Z,50.876507
2022-07-29T00:46:44.548Z,50.876507
2022-07-29T00:47:44.488Z,50.876507
2022-07-29T00:48:44.515Z,50.876507
2022-07-29T00:49:44.457Z,50.876507
2022-07-29T00:50:44.453Z,50.876507
2022-07-29T00:51:44.432Z,50.876507
2022-07-29T00:52:44.458Z,50.876507
2022-07-29T00:53:44.440Z,50.876507
2022-07-29T00:54:45.106Z,50.876507
2022-07-29T00:55:44.388Z,50.876507
2022-07-29T00:56:44.398Z,50.876507
2022-07-29T00:57:44.370Z,50.876507
2022-07-29T00:58:44.354Z,50.876507
2022-07-29T00:59:44.321Z,50.876507
2022-07-29T01:00:45.595Z,50.876507
2022-07-29T01:01:44.434Z,50.876507
2022-07-29T01:02:44.321Z,50.876507
2022-07-29T01:03:44.298Z,50.876507
2022-07-29T01:04:44.308Z,50.876507
2022-07-29T01:05:50.160Z,50.876507
2022-07-29T01:06:45.299Z,50.876507
2022-07-29T01:07:44.286Z,50.876507
2022-07-29T01:08:44.267Z,50.876507
2022-07-29T01:09:46.755Z,50.876507
2022-07-29T01:10:44.261Z,50.876507
2022-07-29T01:11:44.247Z,50.876507
2022-07-29T01:12:44.243Z,50.876507
2022-07-29T01:13:44.212Z,50.876507
2022-07-29T01:14:44.185Z,50.876507
2022-07-29T01:15:49.483Z,50.876507
2022-07-29T01:16:45.245Z,50.876507
2022-07-29T01:17:53.369Z,50.876507
2022-07-29T01:18:45.226Z,50.876507
2022-07-29T01:19:44.183Z,50.876507
2022-07-29T01:20:44.183Z,50.876507
2022-07-29T01:21:44.168Z,50.876507
2022-07-29T01:22:44.161Z,50.876507
2022-07-29T01:23:44.117Z,50.876507
2022-07-29T01:24:44.107Z,50.876507
2022-07-29T01:25:45.102Z,50.876507
2022-07-29T01:26:44.107Z,50.876507
2022-07-29T01:27:44.107Z,50.876507
2022-07-29T01:28:44.091Z,50.876507
2022-07-29T01:29:44.063Z,50.876507
2022-07-29T01:30:44.055Z,50.876507
2022-07-29T01:31:58.497Z,50.876507
2022-07-29T01:32:45.021Z,50.876507
2022-07-29T01:33:44.034Z,50.876507
2022-07-29T01:34:44.018Z,50.876507
2022-07-29T01:35:44.047Z,50.876507
2022-07-29T01:36:44.006Z,50.876507
2022-07-29T01:37:43.991Z,50.876507
2022-07-29T01:38:43.981Z,50.876507
2022-07-29T01:39:43.988Z,50.876507
2022-07-29T01:40:43.989Z,50.876507
2022-07-29T01:41:43.978Z,50.876507
2022-07-29T01:42:43.944Z,50.876507
2022-07-29T01:43:43.931Z,50.876507
2022-07-29T01:44:43.953Z,50.876507
2022-07-29T01:45:43.916Z,50.876507
2022-07-29T01:46:43.957Z,50.876507
2022-07-29T01:47:43.895Z,50.876507
2022-07-29T01:48:43.917Z,50.876507
2022-07-29T01:49:43.871Z,50.876507
2022-07-29T01:50:43.878Z,50.876507
2022-07-29T01:51:43.853Z,50.876507
2022-07-29T01:52:43.872Z,50.876507
2022-07-29T01:53:43.834Z,50.876507
2022-07-29T01:54:43.813Z,50.876507
2022-07-29T01:55:43.818Z,50.876507
2022-07-29T01:56:43.809Z,50.876507
2022-07-29T01:57:43.806Z,50.876507
2022-07-29T01:58:43.799Z,50.876507
2022-07-29T01:59:43.789Z,50.876507
2022-07-29T02:00:44.782Z,50.876507
2022-07-29T02:01:43.930Z,50.876507
2022-07-29T02:02:43.737Z,50.876507
2022-07-29T02:03:44.732Z,50.876507
2022-07-29T02:04:43.760Z,50.876507
2022-07-29T02:05:43.724Z,50.876507
2022-07-29T02:06:43.711Z,50.876507
2022-07-29T02:07:43.693Z,50.876507
2022-07-29T02:08:43.676Z,50.876507
2022-07-29T02:09:43.673Z,50.876507
2022-07-29T02:10:43.665Z,50.876507
2022-07-29T02:11:43.656Z,50.876507
2022-07-29T02:12:43.658Z,50.876507
2022-07-29T02:13:44.628Z,50.876507
2022-07-29T02:14:43.639Z,50.876507
2022-07-29T02:15:43.672Z,50.876507
2022-07-29T02:16:43.615Z,50.876507
2022-07-29T02:17:43.604Z,50.876507
2022-07-29T02:18:43.595Z,50.876507
2022-07-29T02:19:43.564Z,50.876507
2022-07-29T02:20:43.581Z,50.876507
2022-07-29T02:21:43.563Z,50.876507
2022-07-29T02:22:43.566Z,50.876507
2022-07-29T02:23:50.476Z,50.876507
2022-07-29T02:24:44.544Z,50.876507
2022-07-29T02:25:43.534Z,50.876507
2022-07-29T02:26:43.503Z,50.876507
2022-07-29T02:27:43.514Z,50.876507
2022-07-29T02:28:43.474Z,50.876507
2022-07-29T02:29:43.490Z,50.876507
2022-07-29T02:30:43.611Z,50.876507
2022-07-29T02:31:43.486Z,50.876507
2022-07-29T02:32:43.497Z,50.876507
2022-07-29T02:33:43.454Z,50.876507
2022-07-29T02:34:43.451Z,50.876507
2022-07-29T02:35:43.456Z,50.876507
2022-07-29T02:36:43.420Z,50.876507
2022-07-29T02:37:43.416Z,50.876507
2022-07-29T02:38:43.410Z,50.876507
2022-07-29T02:39:43.404Z,50.876507
2022-07-29T02:40:43.369Z,50.876507
2022-07-29T02:41:43.373Z,50.876507
2022-07-29T02:42:43.376Z,50.876507
2022-07-29T02:43:43.347Z,50.876507
2022-07-29T02:44:43.367Z,50.876507
2022-07-29T02:45:43.310Z,50.876507
2022-07-29T02:46:43.361Z,50.876507
2022-07-29T02:47:44.316Z,50.876507
2022-07-29T02:48:43.381Z,50.876507
2022-07-29T02:49:43.288Z,50.876507
2022-07-29T02:50:43.280Z,50.876507
2022-07-29T02:51:44.686Z,50.876507
2022-07-29T02:52:43.279Z,50.876507
2022-07-29T02:53:43.230Z,50.876507
2022-07-29T02:54:43.221Z,50.876507
2022-07-29T02:55:43.215Z,50.876507
2022-07-29T02:56:43.217Z,50.876507
2022-07-29T02:57:54.717Z,50.876507
2022-07-29T02:58:44.199Z,50.876507
2022-07-29T02:59:43.176Z,50.876507
2022-07-29T03:00:43.163Z,50.876507
2022-07-29T03:01:43.191Z,50.876507
2022-07-29T03:02:43.156Z,50.876507
2022-07-29T03:03:43.126Z,50.876507
2022-07-29T03:04:43.168Z,50.876507
2022-07-29T03:05:43.098Z,50.876507
2022-07-29T03:06:43.092Z,50.876507
2022-07-29T03:07:43.093Z,50.876507
2022-07-29T03:08:43.085Z,50.876507
2022-07-29T03:09:43.073Z,50.876507
2022-07-29T03:10:43.060Z,50.876507
2022-07-29T03:11:49.606Z,50.876507
2022-07-29T03:12:44.046Z,50.876507
2022-07-29T03:13:43.032Z,50.876507
2022-07-29T03:14:43.014Z,50.876507
2022-07-29T03:15:43.038Z,50.876507
2022-07-29T03:16:43.029Z,50.876507
2022-07-29T03:17:43.022Z,50.876507
2022-07-29T03:18:42.982Z,50.876507
2022-07-29T03:19:42.973Z,50.876507
2022-07-29T03:20:55.723Z,50.876507
2022-07-29T03:21:45.290Z,50.876507
2022-07-29T03:22:43.499Z,50.876507
2022-07-29T03:23:45.605Z,50.876507
2022-07-29T03:24:45.456Z,50.876507
2022-07-29T03:25:42.915Z,50.876507
2022-07-29T03:26:42.915Z,50.876507
2022-07-29T03:27:42.903Z,50.876507
2022-07-29T03:28:42.864Z,50.876507
2022-07-29T03:29:43.650Z,50.876507
2022-07-29T03:30:44.603Z,50.876507
2022-07-29T03:31:43.753Z,50.876507
2022-07-29T03:32:43.050Z,50.876507
2022-07-29T03:33:42.842Z,50.876507
2022-07-29T03:34:42.830Z,50.876507
2022-07-29T03:35:42.790Z,50.876507
2022-07-29T03:36:42.805Z,50.876507
2022-07-29T03:37:42.809Z,50.876507
2022-07-29T03:38:42.793Z,50.876507
2022-07-29T03:39:42.796Z,50.876507
2022-07-29T03:40:42.762Z,50.876507
2022-07-29T03:41:42.746Z,50.876507
2022-07-29T03:42:42.765Z,50.876507
2022-07-29T03:43:48.952Z,50.876507
2022-07-29T03:44:43.732Z,50.876507
2022-07-29T03:45:42.729Z,50.876507
2022-07-29T03:46:42.750Z,50.876507
2022-07-29T03:47:50.106Z,50.876507
2022-07-29T03:48:43.728Z,50.876507
2022-07-29T03:49:42.681Z,50.876507
2022-07-29T03:50:42.711Z,50.876507
2022-07-29T03:51:42.652Z,50.876507
2022-07-29T03:52:42.656Z,50.876507
2022-07-29T03:53:42.625Z,50.876507
2022-07-29T03:54:42.610Z,50.876507
2022-07-29T03:55:42.618Z,50.876507
2022-07-29T03:56:42.596Z,50.876507
2022-07-29T03:57:42.628Z,50.876507
2022-07-29T03:58:42.579Z,50.876507
2022-07-29T03:59:42.578Z,50.876507
2022-07-29T04:00:42.558Z,50.876507
2022-07-29T04:01:42.588Z,50.876507
2022-07-29T04:02:42.600Z,50.876507
2022-07-29T04:03:42.611Z,50.874985
2022-07-29T04:04:42.518Z,50.874275
2022-07-29T04:05:42.513Z,50.874592
2022-07-29T04:06:48.371Z,50.875381
2022-07-29T04:07:42.538Z,50.875629
2022-07-29T04:08:42.498Z,50.875771
2022-07-29T04:09:42.481Z,50.875935
2022-07-29T04:10:42.471Z,50.876205
2022-07-29T04:12:02.688Z,50.875900
2022-07-29T04:12:43.452Z,50.875412
2022-07-29T04:13:42.431Z,50.875118
2022-07-29T04:14:42.438Z,50.875053
2022-07-29T04:15:42.448Z,50.875267
2022-07-29T04:16:42.420Z,50.875401
2022-07-29T04:17:42.411Z,50.875401
2022-07-29T04:18:42.378Z,50.875271
2022-07-29T04:19:43.121Z,50.875149
2022-07-29T04:20:42.375Z,50.875298
2022-07-29T04:21:43.489Z,50.875103
2022-07-29T04:22:42.398Z,50.875183
2022-07-29T04:23:45.889Z,50.875130
2022-07-29T04:24:44.734Z,50.875248
2022-07-29T04:25:44.961Z,50.875221
2022-07-29T04:26:42.536Z,50.875248
2022-07-29T04:27:42.278Z,50.875259
2022-07-29T04:28:42.301Z,50.875351
2022-07-29T04:29:56.798Z,50.875374
2022-07-29T04:30:43.288Z,50.875347
2022-07-29T04:31:42.274Z,50.875324
2022-07-29T04:32:42.229Z,50.875340
2022-07-29T04:33:42.226Z,50.875305
2022-07-29T04:34:42.276Z,50.875237
2022-07-29T04:35:45.724Z,50.875309
2022-07-29T04:36:43.930Z,50.875370
2022-07-29T04:37:42.186Z,50.875393
2022-07-29T04:38:42.147Z,50.875305
2022-07-29T04:39:42.144Z,50.875389
2022-07-29T04:40:42.146Z,50.875393
2022-07-29T04:41:42.130Z,50.875317
2022-07-29T04:42:46.332Z,50.875366
2022-07-29T04:43:43.118Z,50.875538
2022-07-29T04:44:43.353Z,50.875336
2022-07-29T04:45:42.098Z,50.875313
2022-07-29T04:46:42.179Z,50.875317
2022-07-29T04:47:42.087Z,50.875301
2022-07-29T04:48:42.112Z,50.875416
2022-07-29T04:49:42.051Z,50.875385
2022-07-29T04:50:42.044Z,50.875351
2022-07-29T04:51:42.031Z,50.875381
2022-07-29T04:52:42.030Z,50.875378
2022-07-29T04:53:42.015Z,50.875477
2022-07-29T04:54:42.030Z,50.875374
2022-07-29T04:55:41.988Z,50.875462
2022-07-29T04:56:41.974Z,50.875462
2022-07-29T04:57:41.982Z,50.875416
2022-07-29T04:58:41.959Z,50.875385
2022-07-29T04:59:41.933Z,50.875408
2022-07-29T05:00:41.925Z,50.875351
2022-07-29T05:01:41.973Z,50.875355
2022-07-29T05:02:42.002Z,50.875351
2022-07-29T05:03:41.893Z,50.875320
2022-07-29T05:04:41.896Z,50.875340
2022-07-29T05:05:41.879Z,50.875347
2022-07-29T05:06:41.872Z,50.875313
2022-07-29T05:07:41.873Z,50.875347
2022-07-29T05:08:41.859Z,50.875385
2022-07-29T05:09:41.845Z,50.875328
2022-07-29T05:10:41.824Z,50.875336
2022-07-29T05:11:41.819Z,50.875443
2022-07-29T05:12:41.808Z,50.875443
2022-07-29T05:13:46.090Z,50.875408
2022-07-29T05:14:42.791Z,50.875622
2022-07-29T05:15:41.838Z,50.880722
2022-07-29T05:16:41.772Z,50.891453
2022-07-29T05:17:41.764Z,50.901516
2022-07-29T05:18:41.770Z,50.901516
2022-07-29T05:19:41.753Z,50.901516
2022-07-29T05:20:41.726Z,50.901516
2022-07-29T05:21:41.717Z,50.901516
2022-07-29T05:22:41.712Z,50.901516
2022-07-29T05:23:41.709Z,50.901516
2022-07-29T05:24:41.694Z,50.901516
2022-07-29T05:25:43.631Z,50.901516
2022-07-29T05:26:41.668Z,50.901516
2022-07-29T05:27:41.662Z,50.901516
2022-07-29T05:28:41.662Z,50.901516
2022-07-29T05:29:42.958Z,50.901516
2022-07-29T05:30:41.672Z,50.901516
2022-07-29T05:31:41.616Z,50.901516
2022-07-29T05:32:41.610Z,50.901516
2022-07-29T05:33:41.617Z,50.901516
2022-07-29T05:34:50.227Z,50.901516
2022-07-29T05:35:42.582Z,50.901516
2022-07-29T05:36:41.576Z,50.901516
2022-07-29T05:37:41.564Z,50.901516
2022-07-29T05:38:41.564Z,50.901516
2022-07-29T05:39:48.871Z,50.901516
2022-07-29T05:40:42.535Z,50.901516
2022-07-29T05:41:41.527Z,50.901516
2022-07-29T05:42:41.514Z,50.901516
2022-07-29T05:43:41.518Z,50.901516
2022-07-29T05:44:41.493Z,50.901516
2022-07-29T05:45:49.739Z,50.901516
2022-07-29T05:46:42.534Z,50.901516
2022-07-29T05:47:41.469Z,50.901516
2022-07-29T05:48:41.505Z,50.901516
2022-07-29T05:49:41.448Z,50.901516
2022-07-29T05:50:44.252Z,50.901516
2022-07-29T05:51:41.432Z,50.901516
2022-07-29T05:52:41.416Z,50.901516
2022-07-29T05:53:41.420Z,50.901516
2022-07-29T05:54:41.406Z,50.901516
2022-07-29T05:55:41.388Z,50.901516
2022-07-29T05:56:42.375Z,50.901516
2022-07-29T05:57:41.358Z,50.901516
2022-07-29T05:58:42.370Z,50.901516
2022-07-29T05:59:41.343Z,50.901516
2022-07-29T06:00:41.345Z,50.901516
2022-07-29T06:01:41.424Z,50.901516
2022-07-29T06:02:41.332Z,50.901516
2022-07-29T06:03:41.324Z,50.901516
2022-07-29T06:04:41.323Z,50.901516
2022-07-29T06:05:41.294Z,50.901516
2022-07-29T06:06:41.289Z,50.901516
2022-07-29T06:07:41.291Z,50.901516
2022-07-29T06:08:42.271Z,50.901516
2022-07-29T06:09:41.254Z,50.901516
2022-07-29T06:10:41.269Z,50.901516
2022-07-29T06:11:41.235Z,50.901516
2022-07-29T06:12:41.226Z,50.901516
2022-07-29T06:13:41.232Z,50.901516
2022-07-29T06:14:41.209Z,50.901516
2022-07-29T06:15:41.292Z,50.901516
2022-07-29T06:16:41.251Z,50.901516
2022-07-29T06:17:59.099Z,50.901516
2022-07-29T06:18:42.174Z,50.901516
2022-07-29T06:19:41.160Z,50.901516
2022-07-29T06:20:41.151Z,50.901516
2022-07-29T06:21:42.089Z,50.901516
2022-07-29T06:22:41.129Z,50.901516
2022-07-29T06:23:41.130Z,50.901516
2022-07-29T06:24:41.107Z,50.901516
2022-07-29T06:25:41.101Z,50.901516
2022-07-29T06:26:41.089Z,50.901516
2022-07-29T06:27:41.076Z,50.901516
2022-07-29T06:28:41.080Z,50.901516
2022-07-29T06:29:41.057Z,50.901516
2022-07-29T06:30:41.075Z,50.901516
2022-07-29T06:31:41.041Z,50.901516
2022-07-29T06:32:43.214Z,50.901516
2022-07-29T06:33:42.039Z,50.901516
2022-07-29T06:34:41.006Z,50.901516
2022-07-29T06:35:42.730Z,50.901516
2022-07-29T06:36:41.987Z,50.901516
2022-07-29T06:37:40.984Z,50.901516
2022-07-29T06:38:44.838Z,50.901516
2022-07-29T06:39:41.955Z,50.901516
2022-07-29T06:40:40.953Z,50.901516
2022-07-29T06:41:40.937Z,50.901516
2022-07-29T06:42:40.927Z,50.901516
2022-07-29T06:43:42.706Z,50.901516
2022-07-29T06:44:41.915Z,50.901516
2022-07-29T06:45:40.936Z,50.901516
2022-07-29T06:46:40.905Z,50.901516
2022-07-29T06:47:41.866Z,50.901516
2022-07-29T06:48:41.911Z,50.901516
2022-07-29T06:49:40.936Z,50.901516
2022-07-29T06:50:55.889Z,50.901516
2022-07-29T06:51:41.844Z,50.901516
2022-07-29T06:52:40.846Z,50.901516
2022-07-29T06:53:40.826Z,50.901516
2022-07-29T06:54:41.833Z,50.901516
2022-07-29T06:55:40.813Z,50.901516
2022-07-29T06:56:40.793Z,50.901516
2022-07-29T06:57:40.783Z,50.901516
2022-07-29T06:58:40.778Z,50.901516
2022-07-29T06:59:40.790Z,50.901516
2022-07-29T07:00:40.780Z,50.901516
2022-07-29T07:01:40.829Z,50.901516
2022-07-29T07:02:40.834Z,50.901516
2022-07-29T07:03:40.741Z,50.901516
2022-07-29T07:04:40.733Z,50.901516
2022-07-29T07:05:40.796Z,50.901516
2022-07-29T07:06:40.740Z,50.901516
2022-07-29T07:07:40.752Z,50.901516
2022-07-29T07:08:40.696Z,50.901516
2022-07-29T07:09:41.076Z,50.901516
2022-07-29T07:10:40.721Z,50.901516
2022-07-29T07:11:40.665Z,50.901516
2022-07-29T07:12:40.649Z,50.901516
2022-07-29T07:14:03.494Z,50.901516
2022-07-29T07:14:42.738Z,50.901516
2022-07-29T07:15:46.506Z,50.901516
2022-07-29T07:16:40.750Z,50.901516
2022-07-29T07:17:40.671Z,50.901516
2022-07-29T14:07:27.498Z,50.877651
2022-07-29T14:10:40.152Z,50.877712
2022-07-29T14:11:05.711Z,50.877712
2022-07-29T14:12:18.095Z,50.877712
2022-07-29T14:12:44.394Z,50.877712
2022-07-29T14:13:43.398Z,50.877712
2022-07-29T14:14:43.356Z,50.877712
2022-07-29T14:15:43.364Z,50.877712
2022-07-29T14:16:49.097Z,50.877712
2022-07-29T14:17:45.312Z,50.877712
2022-07-29T14:18:43.300Z,50.877712
2022-07-29T14:19:43.292Z,50.877712
2022-07-29T14:20:43.332Z,50.877712
2022-07-29T14:21:43.275Z,50.877712
2022-07-29T14:22:45.289Z,50.877712
2022-07-29T14:23:43.259Z,50.875061
2022-07-29T14:24:43.237Z,50.875298
2022-07-29T14:25:43.238Z,50.875416
2022-07-29T14:26:43.220Z,50.875408
2022-07-29T14:27:43.284Z,50.875381
2022-07-29T14:28:43.204Z,50.875389
2022-07-29T14:29:43.191Z,50.875351
2022-07-29T14:30:43.201Z,50.875401
2022-07-29T14:31:43.457Z,50.875431
2022-07-29T14:32:43.174Z,50.875408
2022-07-29T14:33:43.152Z,50.875328
2022-07-29T14:34:43.253Z,50.875256
2022-07-29T14:35:43.156Z,50.875137
2022-07-29T14:36:43.187Z,50.875050
2022-07-29T14:37:43.138Z,50.875172
2022-07-29T14:38:43.142Z,50.875412
2022-07-29T14:39:43.515Z,50.875629
2022-07-29T14:40:44.129Z,50.875343
2022-07-29T14:41:43.089Z,50.876030
2022-07-29T14:42:43.072Z,50.876167
2022-07-29T14:43:43.064Z,50.876335
2022-07-29T14:44:43.051Z,50.877644
2022-07-29T14:45:43.084Z,50.877735
2022-07-29T14:46:43.038Z,50.877991
2022-07-29T14:47:43.030Z,50.878670
2022-07-29T14:48:43.068Z,50.877445
2022-07-29T14:49:43.006Z,50.877892
2022-07-29T14:50:43.019Z,50.878021
2022-07-29T14:51:42.988Z,50.876526
2022-07-29T14:52:42.983Z,50.876755
2022-07-29T14:53:42.971Z,50.876911
2022-07-29T14:54:42.965Z,50.876911
2022-07-29T14:55:42.973Z,50.876911
2022-07-29T14:56:46.694Z,50.876568
2022-07-29T14:57:42.939Z,50.876587
2022-07-29T14:58:51.506Z,50.876534
2022-07-29T14:59:43.917Z,50.876461
2022-07-29T15:00:42.966Z,50.876400
2022-07-29T15:01:42.917Z,50.876537
2022-07-29T15:03:00.855Z,50.876080
2022-07-29T15:03:44.907Z,50.876080
2022-07-29T15:04:42.876Z,50.876080
2022-07-29T15:05:42.881Z,50.876080
2022-07-29T15:06:42.857Z,50.876080
2022-07-29T15:07:42.842Z,50.876080
2022-07-29T15:08:42.836Z,50.876080
2022-07-29T15:09:49.850Z,50.876080
2022-07-29T15:10:44.830Z,50.876080
2022-07-29T15:11:42.810Z,50.876080
2022-07-29T15:12:42.807Z,50.876080
2022-07-29T15:13:42.796Z,50.876080
2022-07-29T15:14:42.781Z,50.876080
2022-07-29T15:15:42.781Z,50.876080
2022-07-29T15:16:43.980Z,50.876080
2022-07-29T15:17:43.748Z,50.876080
2022-07-29T15:18:42.745Z,50.876080
2022-07-29T15:19:44.999Z,50.876080
2022-07-29T15:20:42.734Z,50.876080
2022-07-29T15:21:48.743Z,50.876080
2022-07-29T15:22:43.705Z,50.876080
2022-07-29T15:23:42.693Z,50.876080
2022-07-29T15:24:42.691Z,50.876080
2022-07-29T15:25:42.686Z,50.876080
2022-07-29T15:26:42.674Z,50.876080
2022-07-29T15:27:42.661Z,50.876080
2022-07-29T15:28:43.648Z,50.876080
2022-07-29T15:29:42.649Z,50.876080
2022-07-29T15:30:42.648Z,50.876080
2022-07-29T15:31:42.698Z,50.876080
2022-07-29T15:32:42.616Z,50.876080
2022-07-29T15:33:42.605Z,50.876080
2022-07-29T15:34:42.598Z,50.876080
2022-07-29T15:35:42.588Z,50.876080
2022-07-29T15:36:52.071Z,50.876080
2022-07-29T15:37:48.578Z,50.876080
2022-07-29T15:38:42.563Z,50.876080
2022-07-29T15:39:42.554Z,50.876080
2022-07-29T15:40:42.549Z,50.876080
2022-07-29T15:41:42.549Z,50.876080
2022-07-29T15:42:42.527Z,50.876080
2022-07-29T15:43:42.516Z,50.876080
2022-07-29T15:44:42.508Z,50.876080
2022-07-29T15:45:42.531Z,50.876080
2022-07-29T15:46:42.503Z,50.876080
2022-07-29T15:47:42.489Z,50.876080
2022-07-29T15:48:42.504Z,50.876080
2022-07-29T15:49:47.361Z,50.876080
2022-07-29T15:50:43.458Z,50.876080
2022-07-29T15:51:42.454Z,50.876080
2022-07-29T15:52:42.432Z,50.876080
2022-07-29T15:53:42.430Z,50.876080
2022-07-29T15:54:42.414Z,50.876080
2022-07-29T15:55:42.394Z,50.876453
2022-07-29T15:56:43.411Z,50.876389
2022-07-29T15:57:42.384Z,50.876446
2022-07-29T15:58:42.375Z,50.876392
2022-07-29T15:59:42.364Z,50.876396
2022-07-29T16:00:42.405Z,50.876492
2022-07-29T16:01:42.586Z,50.878418
2022-07-29T16:02:42.359Z,50.881592
2022-07-29T16:03:46.092Z,50.881592
2022-07-29T16:04:43.346Z,50.881592
2022-07-29T16:05:42.373Z,50.881592
2022-07-29T16:06:42.354Z,50.881592
2022-07-29T16:07:42.328Z,50.881592
2022-07-29T16:08:42.298Z,50.881592
2022-07-29T16:09:42.334Z,50.881592
2022-07-29T16:10:42.331Z,50.881592
2022-07-29T16:11:42.347Z,50.881592
2022-07-29T16:12:42.286Z,50.881592
2022-07-29T16:13:42.327Z,50.881592
2022-07-29T16:14:42.416Z,50.881592
2022-07-29T16:15:42.267Z,50.881592
2022-07-29T16:16:42.265Z,50.881592
2022-07-29T16:17:42.196Z,50.881592
2022-07-29T16:18:42.186Z,50.881592
2022-07-29T16:19:42.231Z,50.881592
2022-07-29T16:20:42.194Z,50.881592
2022-07-29T16:21:42.164Z,50.881592
2022-07-29T16:22:42.145Z,50.881592
2022-07-29T16:23:42.138Z,50.881592
2022-07-29T16:24:42.153Z,50.881592
2022-07-29T16:25:59.090Z,50.881592
2022-07-29T16:26:44.121Z,50.881592
2022-07-29T16:27:42.099Z,50.881592
2022-07-29T16:28:42.090Z,50.881592
2022-07-29T16:29:42.090Z,50.881592
2022-07-29T16:30:42.084Z,50.881592
2022-07-29T16:31:42.144Z,50.881592
2022-07-29T16:32:42.048Z,50.881592
2022-07-29T16:33:54.228Z,50.881592
2022-07-29T16:34:43.023Z,50.881592
2022-07-29T16:35:42.023Z,50.881592
2022-07-29T16:36:47.407Z,50.881592
2022-07-29T16:37:43.993Z,50.881592
2022-07-29T16:38:47.216Z,50.881592
2022-07-29T16:39:42.965Z,50.881592
2022-07-29T16:40:42.968Z,50.881592
2022-07-29T16:41:41.973Z,50.881592
2022-07-29T16:42:47.045Z,50.875591
2022-07-29T16:43:43.934Z,50.875343
2022-07-29T16:44:41.923Z,50.875286
2022-07-29T16:45:45.499Z,50.875412
2022-07-29T16:46:41.925Z,50.875374
2022-07-29T16:47:41.898Z,50.875397
2022-07-29T16:48:41.928Z,50.875328
2022-07-29T16:49:44.825Z,50.875336
2022-07-29T16:50:43.307Z,50.875374
2022-07-29T16:51:41.861Z,50.875378
2022-07-29T16:52:41.857Z,50.875408
2022-07-29T16:53:41.841Z,50.875450
2022-07-29T16:54:41.833Z,50.875435
2022-07-29T16:55:42.200Z,50.875446
2022-07-29T16:56:41.817Z,50.875439
2022-07-29T16:57:41.815Z,50.875477
2022-07-29T16:58:44.046Z,50.875427
2022-07-29T16:59:43.346Z,50.875359
2022-07-29T17:00:41.873Z,50.874855
2022-07-29T17:01:41.825Z,50.874493
2022-07-29T17:02:41.766Z,50.875278
2022-07-29T17:03:41.746Z,50.875053
2022-07-29T17:04:41.749Z,50.875359
2022-07-29T17:05:52.392Z,50.875237
2022-07-29T17:06:42.729Z,50.875530
2022-07-29T17:07:41.720Z,50.875244
2022-07-29T17:08:41.697Z,50.875626
2022-07-29T17:09:41.687Z,50.875507
2022-07-29T17:10:41.681Z,50.875572
2022-07-29T17:11:52.402Z,50.875355
2022-07-29T17:12:42.661Z,50.875320
2022-07-29T17:13:41.652Z,50.875370
2022-07-29T17:14:41.636Z,50.875359
2022-07-29T17:15:41.629Z,50.875458
2022-07-29T17:16:41.659Z,50.875462
2022-07-29T17:17:56.799Z,50.875359
2022-07-29T17:18:42.600Z,50.875412
2022-07-29T17:19:41.619Z,50.875431
2022-07-29T17:20:41.580Z,50.875786
2022-07-29T17:21:46.723Z,50.875320
2022-07-29T17:22:42.570Z,50.875324
2022-07-29T17:23:41.548Z,50.875515
2022-07-29T17:24:41.539Z,50.875423
2022-07-29T17:25:41.527Z,50.875282
2022-07-29T17:26:41.528Z,50.875248
2022-07-29T17:27:41.520Z,50.875328
2022-07-29T17:28:41.500Z,50.875328
2022-07-29T17:29:41.492Z,50.875488
2022-07-29T17:30:41.481Z,50.875336
2022-07-29T17:31:41.529Z,50.875298
2022-07-29T17:32:41.482Z,50.875347
2022-07-29T17:33:41.449Z,50.875523
2022-07-29T17:34:41.449Z,50.875412
2022-07-29T17:35:41.435Z,50.875347
2022-07-29T17:36:41.420Z,50.875420
2022-07-29T17:37:41.428Z,50.875286
2022-07-29T17:38:41.421Z,50.875454
2022-07-29T17:39:41.475Z,50.875404
2022-07-29T17:40:41.391Z,50.875500
2022-07-29T17:41:41.388Z,50.875587
2022-07-29T17:42:41.774Z,50.875454
2022-07-29T17:43:41.359Z,50.875443
2022-07-29T17:44:41.344Z,50.875370
2022-07-29T17:45:50.358Z,50.875343
2022-07-29T17:46:43.364Z,50.875374
2022-07-29T17:47:41.322Z,50.875225
2022-07-29T17:48:41.374Z,50.875298
2022-07-29T17:49:41.290Z,50.875565
2022-07-29T17:50:41.298Z,50.875549
2022-07-29T17:51:41.266Z,50.875404
2022-07-29T17:52:41.270Z,50.875351
2022-07-29T17:53:41.266Z,50.875320
2022-07-29T17:54:41.240Z,50.875340
2022-07-29T17:55:41.233Z,50.875378
2022-07-29T17:56:41.228Z,50.875408
2022-07-29T17:57:41.219Z,50.875385
2022-07-29T17:58:41.198Z,50.875370
2022-07-29T17:59:41.207Z,50.875278
2022-07-29T18:00:41.206Z,50.875111
2022-07-29T18:01:41.198Z,50.875347
2022-07-29T18:02:41.197Z,50.876659
2022-07-29T18:03:41.152Z,50.875519
2022-07-29T18:04:41.157Z,50.875957
2022-07-29T18:05:41.139Z,50.878540
2022-07-29T18:06:41.125Z,50.884624
2022-07-29T18:07:41.149Z,50.892838
2022-07-29T18:08:41.119Z,50.913654
2022-07-29T18:09:41.103Z,50.913654
2022-07-29T18:10:41.087Z,50.913654
2022-07-29T18:11:41.077Z,50.913654
2022-07-29T18:12:41.079Z,50.913654
2022-07-29T18:13:41.058Z,50.913654
2022-07-29T18:14:41.055Z,50.913654